sensor_id;sensor_type;location;lat;lon;timestamp;pressure;altitude;pressure_sealevel;temperature;humidity
21869;BME280;11099;41.564;23.296;2024-02-04T00:01:04;98073.59;;;7.22;67.32
21869;BME280;11099;41.564;23.296;2024-02-04T00:03:30;98090.75;;;7.34;67.45
21869;BME280;11099;41.564;23.296;2024-02-04T00:06:22;98147.16;;;7.40;68.25
21869;BME280;11099;41.564;23.296;2024-02-04T00:08:48;98118.59;;;7.37;69.04
21869;BME280;11099;41.564;23.296;2024-02-04T00:11:19;98069.13;;;7.07;69.11
21869;BME280;11099;41.564;23.296;2024-02-04T00:14:10;98121.09;;;7.73;67.83
21869;BME280;11099;41.564;23.296;2024-02-04T00:16:46;98122.19;;;7.66;67.54
21869;BME280;11099;41.564;23.296;2024-02-04T00:19:14;98147.47;;;7.98;67.41
21869;BME280;11099;41.564;23.296;2024-02-04T00:21:40;98159.13;;;8.02;67.36
21869;BME280;11099;41.564;23.296;2024-02-04T00:24:06;98104.91;;;8.18;65.28
21869;BME280;11099;41.564;23.296;2024-02-04T00:26:35;98073.25;;;7.98;64.90
21869;BME280;11099;41.564;23.296;2024-02-04T00:29:05;98092.75;;;7.63;67.45
21869;BME280;11099;41.564;23.296;2024-02-04T00:34:55;98124.28;;;7.70;67.23
21869;BME280;11099;41.564;23.296;2024-02-04T00:46:03;98109.34;;;7.89;67.12
21869;BME280;11099;41.564;23.296;2024-02-04T00:48:37;98145.78;;;8.17;66.48
21869;BME280;11099;41.564;23.296;2024-02-04T00:53:55;98071.28;;;7.75;66.92
21869;BME280;11099;41.564;23.296;2024-02-04T00:56:22;98091.25;;;8.01;65.60
21869;BME280;11099;41.564;23.296;2024-02-04T00:58:55;98137.78;;;8.23;66.41
21869;BME280;11099;41.564;23.296;2024-02-04T01:01:21;98125.88;;;8.20;65.66
21869;BME280;11099;41.564;23.296;2024-02-04T01:03:50;98067.38;;;8.01;64.69
21869;BME280;11099;41.564;23.296;2024-02-04T01:06:24;98140.44;;;8.67;64.15
21869;BME280;11099;41.564;23.296;2024-02-04T01:08:53;98135.88;;;8.73;63.41
21869;BME280;11099;41.564;23.296;2024-02-04T01:11:20;98132.97;;;8.74;62.96
21869;BME280;11099;41.564;23.296;2024-02-04T01:13:52;98105.47;;;8.21;63.31
21869;BME280;11099;41.564;23.296;2024-02-04T01:16:37;98127.88;;;8.43;64.14
21869;BME280;11099;41.564;23.296;2024-02-04T01:19:04;98103.13;;;8.14;65.24
21869;BME280;11099;41.564;23.296;2024-02-04T01:21:34;98079.66;;;7.92;66.12
21869;BME280;11099;41.564;23.296;2024-02-04T01:24:08;98136.50;;;7.65;69.03
21869;BME280;11099;41.564;23.296;2024-02-04T01:27:05;98069.09;;;7.82;67.37
21869;BME280;11099;41.564;23.296;2024-02-04T01:29:33;98092.19;;;8.21;66.84
21869;BME280;11099;41.564;23.296;2024-02-04T01:32:05;98063.47;;;8.33;65.61
21869;BME280;11099;41.564;23.296;2024-02-04T01:34:32;98134.88;;;8.97;64.19
21869;BME280;11099;41.564;23.296;2024-02-04T01:37:08;98097.13;;;8.71;64.90
21869;BME280;11099;41.564;23.296;2024-02-04T01:39:40;98085.88;;;8.85;63.80
21869;BME280;11099;41.564;23.296;2024-02-04T01:42:08;98112.84;;;9.21;62.68
21869;BME280;11099;41.564;23.296;2024-02-04T01:44:39;98064.81;;;8.93;62.22
21869;BME280;11099;41.564;23.296;2024-02-04T01:49:50;98056.00;;;8.35;63.31
21869;BME280;11099;41.564;23.296;2024-02-04T01:52:19;98125.25;;;8.38;64.92
21869;BME280;11099;41.564;23.296;2024-02-04T01:54:45;98090.66;;;8.14;65.25
21869;BME280;11099;41.564;23.296;2024-02-04T01:57:12;98102.38;;;8.03;66.20
21869;BME280;11099;41.564;23.296;2024-02-04T01:59:40;98134.41;;;7.52;71.05
21869;BME280;11099;41.564;23.296;2024-02-04T02:02:09;98142.72;;;7.95;67.73
21869;BME280;11099;41.564;23.296;2024-02-04T02:04:42;98139.47;;;8.08;66.96
21869;BME280;11099;41.564;23.296;2024-02-04T02:15:44;98059.16;;;6.73;74.88
21869;BME280;11099;41.564;23.296;2024-02-04T02:18:29;98060.69;;;7.00;72.60
21869;BME280;11099;41.564;23.296;2024-02-04T02:21:44;98073.63;;;7.06;73.83
21869;BME280;11099;41.564;23.296;2024-02-04T02:24:40;98128.34;;;7.47;72.62
21869;BME280;11099;41.564;23.296;2024-02-04T02:27:12;98134.16;;;7.54;72.73
21869;BME280;11099;41.564;23.296;2024-02-04T02:30:16;98132.59;;;7.43;73.30
21869;BME280;11099;41.564;23.296;2024-02-04T02:35:49;98077.19;;;7.51;71.41
21869;BME280;11099;41.564;23.296;2024-02-04T02:39:34;98056.94;;;7.76;69.44
21869;BME280;11099;41.564;23.296;2024-02-04T02:41:40;98133.53;;;8.27;68.70
21869;BME280;11099;41.564;23.296;2024-02-04T02:44:17;98103.16;;;8.48;67.43
21869;BME280;11099;41.564;23.296;2024-02-04T02:46:46;98054.88;;;7.62;68.48
21869;BME280;11099;41.564;23.296;2024-02-04T02:49:22;98088.44;;;7.18;73.18
21869;BME280;11099;41.564;23.296;2024-02-04T02:54:28;98117.56;;;8.37;68.82
21869;BME280;11099;41.564;23.296;2024-02-04T02:57:01;98075.97;;;7.88;69.27
21869;BME280;11099;41.564;23.296;2024-02-04T02:59:46;98108.56;;;7.88;69.94
21869;BME280;11099;41.564;23.296;2024-02-04T03:02:27;98078.56;;;7.98;69.24
21869;BME280;11099;41.564;23.296;2024-02-04T03:05:00;98100.72;;;8.12;68.22
21869;BME280;11099;41.564;23.296;2024-02-04T03:07:38;98123.34;;;8.44;68.00
21869;BME280;11099;41.564;23.296;2024-02-04T03:10:08;98025.66;;;7.78;68.17
21869;BME280;11099;41.564;23.296;2024-02-04T03:12:49;98083.56;;;8.00;68.17
21869;BME280;11099;41.564;23.296;2024-02-04T03:15:16;98117.22;;;8.04;70.10
21869;BME280;11099;41.564;23.296;2024-02-04T03:17:43;98092.88;;;7.97;70.02
21869;BME280;11099;41.564;23.296;2024-02-04T03:20:32;98045.81;;;7.74;70.39
21869;BME280;11099;41.564;23.296;2024-02-04T03:23:06;98113.06;;;8.37;69.21
21869;BME280;11099;41.564;23.296;2024-02-04T03:26:33;98073.81;;;7.90;70.50
21869;BME280;11099;41.564;23.296;2024-02-04T03:31:56;98036.84;;;7.70;70.81
21869;BME280;11099;41.564;23.296;2024-02-04T03:41:17;98105.22;;;8.56;69.27
21869;BME280;11099;41.564;23.296;2024-02-04T03:44:04;98043.22;;;8.47;68.03
21869;BME280;11099;41.564;23.296;2024-02-04T04:01:35;98088.31;;;9.53;66.19
21869;BME280;11099;41.564;23.296;2024-02-04T04:04:04;98030.78;;;8.71;67.88
21869;BME280;11099;41.564;23.296;2024-02-04T04:15:17;98065.06;;;9.83;65.47
21869;BME280;11099;41.564;23.296;2024-02-04T04:20:25;97987.06;;;8.88;67.93
21869;BME280;11099;41.564;23.296;2024-02-04T04:25:51;98016.72;;;8.95;69.54
21869;BME280;11099;41.564;23.296;2024-02-04T04:28:43;98012.81;;;9.11;68.10
21869;BME280;11099;41.564;23.296;2024-02-04T04:31:25;98042.56;;;9.13;69.03
21869;BME280;11099;41.564;23.296;2024-02-04T04:39:04;98051.56;;;8.88;70.27
21869;BME280;11099;41.564;23.296;2024-02-04T04:41:46;98000.53;;;8.09;72.81
21869;BME280;11099;41.564;23.296;2024-02-04T04:44:15;98060.69;;;9.06;69.80
21869;BME280;11099;41.564;23.296;2024-02-04T04:46:41;98026.53;;;8.70;70.08
21869;BME280;11099;41.564;23.296;2024-02-04T04:51:57;98034.03;;;8.92;70.47
21869;BME280;11099;41.564;23.296;2024-02-04T04:54:28;98035.44;;;9.09;69.88
21869;BME280;11099;41.564;23.296;2024-02-04T04:56:55;98041.13;;;9.45;68.95
21869;BME280;11099;41.564;23.296;2024-02-04T04:59:21;98025.88;;;9.32;68.94
21869;BME280;11099;41.564;23.296;2024-02-04T05:01:48;98044.34;;;9.42;68.64
21869;BME280;11099;41.564;23.296;2024-02-04T05:04:17;98005.53;;;9.22;67.88
21869;BME280;11099;41.564;23.296;2024-02-04T05:06:54;98007.19;;;9.18;68.00
21869;BME280;11099;41.564;23.296;2024-02-04T05:09:32;98014.88;;;8.03;72.99
21869;BME280;11099;41.564;23.296;2024-02-04T05:12:08;97989.53;;;7.92;72.63
21869;BME280;11099;41.564;23.296;2024-02-04T05:14:51;97990.97;;;7.20;78.34
21869;BME280;11099;41.564;23.296;2024-02-04T05:17:17;98044.00;;;8.48;74.34
21869;BME280;11099;41.564;23.296;2024-02-04T05:19:52;97996.38;;;8.27;73.27
21869;BME280;11099;41.564;23.296;2024-02-04T05:22:21;98059.63;;;8.49;75.14
21869;BME280;11099;41.564;23.296;2024-02-04T05:25:17;98040.34;;;8.38;75.30
21869;BME280;11099;41.564;23.296;2024-02-04T05:28:03;98053.41;;;8.64;75.58
21869;BME280;11099;41.564;23.296;2024-02-04T05:39:55;98000.78;;;8.95;71.75
21869;BME280;11099;41.564;23.296;2024-02-04T05:54:36;98012.63;;;9.08;72.77
21869;BME280;11099;41.564;23.296;2024-02-04T06:00:43;98054.63;;;8.48;73.61
21869;BME280;11099;41.564;23.296;2024-02-04T06:03:33;98045.13;;;8.02;75.49
21869;BME280;11099;41.564;23.296;2024-02-04T06:08:38;98044.13;;;7.44;79.36
21869;BME280;11099;41.564;23.296;2024-02-04T06:14:27;98012.63;;;7.86;77.12
21869;BME280;11099;41.564;23.296;2024-02-04T06:16:57;98106.97;;;8.32;77.43
21869;BME280;11099;41.564;23.296;2024-02-04T06:19:23;98090.75;;;7.99;78.75
21869;BME280;11099;41.564;23.296;2024-02-04T06:24:40;98054.03;;;8.16;76.97
21869;BME280;11099;41.564;23.296;2024-02-04T06:27:31;98100.84;;;7.97;80.08
21869;BME280;11099;41.564;23.296;2024-02-04T06:30:14;98060.63;;;8.24;77.68
21869;BME280;11099;41.564;23.296;2024-02-04T06:32:52;98047.50;;;7.59;78.90
21869;BME280;11099;41.564;23.296;2024-02-04T06:35:34;98044.78;;;7.70;76.68
21869;BME280;11099;41.564;23.296;2024-02-04T07:01:45;98074.06;;;7.93;78.79
21869;BME280;11099;41.564;23.296;2024-02-04T07:04:18;98068.16;;;8.46;77.62
21869;BME280;11099;41.564;23.296;2024-02-04T07:51:19;98105.41;;;9.23;73.78
21869;BME280;11099;41.564;23.296;2024-02-04T19:12:50;98002.91;;;13.02;62.10
21869;BME280;11099;41.564;23.296;2024-02-04T20:36:40;98071.06;;;13.22;61.16
21869;BME280;11099;41.564;23.296;2024-02-04T20:46:38;98001.16;;;13.06;59.58
21869;BME280;11099;41.564;23.296;2024-02-04T20:49:10;98022.09;;;13.13;59.60
21869;BME280;11099;41.564;23.296;2024-02-04T20:54:17;98039.88;;;13.57;58.30
21869;BME280;11099;41.564;23.296;2024-02-04T20:57:25;98072.59;;;13.54;58.70
21869;BME280;11099;41.564;23.296;2024-02-04T21:06:17;98070.06;;;13.18;60.30
21869;BME280;11099;41.564;23.296;2024-02-04T21:32:02;97997.97;;;12.87;59.43
21869;BME280;11099;41.564;23.296;2024-02-04T21:35:24;98085.78;;;13.51;59.21
21869;BME280;11099;41.564;23.296;2024-02-04T21:38:03;98039.09;;;13.17;59.48
21869;BME280;11099;41.564;23.296;2024-02-04T21:46:09;98027.03;;;12.88;59.37
21869;BME280;11099;41.564;23.296;2024-02-04T21:49:30;98079.25;;;12.95;61.09
21869;BME280;11099;41.564;23.296;2024-02-04T21:52:34;98086.56;;;13.42;59.73
21869;BME280;11099;41.564;23.296;2024-02-04T21:55:27;98076.06;;;13.55;58.93
21869;BME280;11099;41.564;23.296;2024-02-04T22:00:42;98073.06;;;13.56;59.02
21869;BME280;11099;41.564;23.296;2024-02-04T22:06:36;98071.56;;;13.02;60.97
21869;BME280;11099;41.564;23.296;2024-02-04T22:30:07;98014.06;;;13.53;56.90
21869;BME280;11099;41.564;23.296;2024-02-04T22:32:37;98006.47;;;12.35;60.29
21869;BME280;11099;41.564;23.296;2024-02-04T22:35:07;97991.72;;;12.60;59.69
21869;BME280;11099;41.564;23.296;2024-02-04T22:37:36;98042.25;;;13.59;57.94
21869;BME280;11099;41.564;23.296;2024-02-04T22:40:06;98023.69;;;13.80;56.41
21869;BME280;11099;41.564;23.296;2024-02-04T22:42:36;98022.09;;;13.79;55.97
21869;BME280;11099;41.564;23.296;2024-02-04T22:45:10;98036.50;;;13.26;58.30
21869;BME280;11099;41.564;23.296;2024-02-04T22:47:44;98011.31;;;13.27;57.67
21869;BME280;11099;41.564;23.296;2024-02-04T22:50:17;97985.69;;;13.26;57.24
21869;BME280;11099;41.564;23.296;2024-02-04T22:52:49;97994.47;;;12.78;59.03
21869;BME280;11099;41.564;23.296;2024-02-04T22:55:41;98044.56;;;13.43;58.26
21869;BME280;11099;41.564;23.296;2024-02-04T22:58:10;97973.31;;;12.99;57.68
21869;BME280;11099;41.564;23.296;2024-02-04T23:00:40;98046.41;;;13.25;58.30
21869;BME280;11099;41.564;23.296;2024-02-04T23:03:33;98003.09;;;12.75;58.66
21869;BME280;11099;41.564;23.296;2024-02-04T23:06:34;97967.47;;;12.88;57.32
